Time,TemperatureF,DewpointF,PressureIn,WindDirection,WindDirectionDegrees,WindSpeedMPH,WindSpeedGustMPH,Humidity,HourlyPrecipIn,Conditions,Clouds,dailyrainin,SoftwareType,DateUTC
2013-02-08 00:05:00,48.4,46.8,29.91,SSW,202,2.7,-999.0,94,-99.99,,,0.00,Acu-Link.com,2013-02-08 08:05:00,
2013-02-08 00:21:00,47.7,43.1,29.91,SSW,202,5.8,-999.0,84,-99.99,,,0.00,Acu-Link.com,2013-02-08 08:21:00,
2013-02-08 00:36:00,48.4,43.8,29.90,West,270,2.7,-999.0,84,-99.99,,,0.00,Acu-Link.com,2013-02-08 08:36:00,
2013-02-08 00:52:00,46.9,42.0,29.90,WNW,292,4.2,-999.0,83,-99.99,,,0.00,Acu-Link.com,2013-02-08 08:52:00,
2013-02-08 01:07:00,48.0,42.5,29.90,South,180,6.8,-999.0,81,-99.99,,,0.00,Acu-Link.com,2013-02-08 09:07:00,
2013-02-08 01:22:00,49.3,45.6,29.90,SSW,202,9.4,-999.0,87,-99.99,,,0.00,Acu-Link.com,2013-02-08 09:22:00,
2013-02-08 01:38:00,46.9,41.7,29.89,SSE,157,8.9,-999.0,82,-99.99,,,0.00,Acu-Link.com,2013-02-08 09:38:00,
2013-02-08 01:53:00,47.5,42.3,29.89,South,180,8.3,-999.0,82,-99.99,,,0.00,Acu-Link.com,2013-02-08 09:53:00,
2013-02-08 02:08:00,47.1,43.7,29.89,SW,225,6.3,-999.0,88,-99.99,,,0.00,Acu-Link.com,2013-02-08 10:08:00,
2013-02-08 02:24:00,45.9,43.4,29.89,WSW,247,7.3,-999.0,91,-99.99,,,0.00,Acu-Link.com,2013-02-08 10:24:00,
2013-02-08 02:39:00,45.7,45.2,29.88,South,180,5.8,-999.0,98,-99.99,,,0.00,Acu-Link.com,2013-02-08 10:39:00,
2013-02-08 02:54:00,48.4,47.9,29.88,South,180,2.7,-999.0,98,-99.99,,,0.00,Acu-Link.com,2013-02-08 10:54:00,
2013-02-08 03:09:00,46.4,45.9,29.87,SSW,202,2.7,-999.0,98,-99.99,,,0.00,Acu-Link.com,2013-02-08 11:09:00,
2013-02-08 03:25:00,45.5,-49.7,29.87,SSW,202,6.3,-999.0,1,-99.99,,,0.00,Acu-Link.com,2013-02-08 11:25:00,
2013-02-08 03:40:00,45.3,44.8,29.87,SW,225,5.3,-999.0,98,-99.99,,,0.00,Acu-Link.com,2013-02-08 11:40:00,
2013-02-08 03:55:00,48.0,47.5,29.87,WSW,247,4.7,-999.0,98,-99.99,,,0.00,Acu-Link.com,2013-02-08 11:55:00,
2013-02-08 04:11:00,44.6,43.8,29.87,SSW,202,3.2,-999.0,97,-99.99,,,0.00,Acu-Link.com,2013-02-08 12:11:00,
2013-02-08 04:26:00,44.2,42.0,29.87,South,180,4.7,-999.0,92,-99.99,,,0.00,Acu-Link.com,2013-02-08 12:26:00,
2013-02-08 04:41:00,45.3,42.0,29.87,SSW,202,4.2,-999.0,88,-99.99,,,0.00,Acu-Link.com,2013-02-08 12:41:00,
2013-02-08 04:56:00,50.9,49.2,29.87,SSW,202,4.2,-999.0,94,-99.99,,,0.00,Acu-Link.com,2013-02-08 12:56:00,
2013-02-08 05:12:00,45.7,43.2,29.88,SSW,202,3.7,-999.0,91,-99.99,,,0.00,Acu-Link.com,2013-02-08 13:12:00,
2013-02-08 05:27:00,43.5,39.0,29.88,SSE,157,6.3,-999.0,84,-99.99,,,0.00,Acu-Link.com,2013-02-08 13:27:00,
2013-02-08 05:42:00,43.7,39.5,29.88,South,180,6.8,-999.0,85,-99.99,,,0.00,Acu-Link.com,2013-02-08 13:42:00,
2013-02-08 05:57:00,44.8,40.0,29.89,South,180,4.7,-999.0,83,-99.99,,,0.00,Acu-Link.com,2013-02-08 13:57:00,
2013-02-08 06:13:00,43.9,40.3,29.89,SW,225,8.3,-999.0,87,-99.99,,,0.00,Acu-Link.com,2013-02-08 14:13:00,
2013-02-08 06:28:00,49.6,49.1,29.89,SSE,157,4.7,-999.0,98,-99.99,,,0.00,Acu-Link.com,2013-02-08 14:28:00,
2013-02-08 06:43:00,44.6,43.3,29.90,South,180,2.7,-999.0,95,-99.99,,,0.00,Acu-Link.com,2013-02-08 14:43:00,
2013-02-08 06:59:00,42.6,38.7,29.90,SSE,157,3.7,-999.0,86,-99.99,,,0.00,Acu-Link.com,2013-02-08 14:59:00,
2013-02-08 07:14:00,44.1,39.3,29.91,SSW,202,4.2,-999.0,83,-99.99,,,0.00,Acu-Link.com,2013-02-08 15:14:00,
2013-02-08 07:29:00,45.1,40.6,29.91,South,180,4.7,-999.0,84,-99.99,,,0.00,Acu-Link.com,2013-02-08 15:29:00,
2013-02-08 07:45:00,47.3,45.9,29.91,WSW,247,7.3,-999.0,95,-99.99,,,0.00,Acu-Link.com,2013-02-08 15:45:00,
2013-02-08 08:00:00,42.8,39.2,29.91,WSW,247,7.8,-999.0,87,-99.99,,,0.00,Acu-Link.com,2013-02-08 16:00:00,
2013-02-08 08:15:00,44.4,39.6,29.91,South,180,7.8,-999.0,83,-99.99,,,0.00,Acu-Link.com,2013-02-08 16:15:00,
2013-02-08 08:30:00,46.4,39.9,29.91,SSE,157,5.3,-999.0,78,-99.99,,,0.00,Acu-Link.com,2013-02-08 16:30:00,
2013-02-08 08:46:00,48.0,42.1,29.90,SW,225,6.3,-999.0,80,-99.99,,,0.00,Acu-Link.com,2013-02-08 16:46:00,
2013-02-08 09:01:00,45.0,43.4,29.90,South,180,5.8,-999.0,94,-99.99,,,0.01,Acu-Link.com,2013-02-08 17:01:00,
2013-02-08 09:16:00,42.4,40.2,29.90,WSW,247,4.2,-999.0,92,-99.99,,,0.02,Acu-Link.com,2013-02-08 17:16:00,
2013-02-08 09:31:00,43.2,40.8,29.90,WSW,247,7.3,-999.0,91,-99.99,,,0.04,Acu-Link.com,2013-02-08 17:31:00,
2013-02-08 09:46:00,44.8,43.2,29.90,SSW,202,3.7,-999.0,94,-99.99,,,0.04,Acu-Link.com,2013-02-08 17:46:00,
2013-02-08 10:02:00,45.9,45.4,29.91,SW,225,5.3,-999.0,98,-99.99,,,0.04,Acu-Link.com,2013-02-08 18:02:00,
2013-02-08 10:17:00,44.2,41.2,29.90,SW,225,4.2,-999.0,89,-99.99,,,0.04,Acu-Link.com,2013-02-08 18:17:00,
2013-02-08 10:32:00,45.7,41.5,29.89,South,180,3.7,-999.0,85,-99.99,,,0.04,Acu-Link.com,2013-02-08 18:32:00,
2013-02-08 10:47:00,47.7,41.8,29.89,SSW,202,8.9,-999.0,80,-99.99,,,0.04,Acu-Link.com,2013-02-08 18:47:00,
2013-02-08 11:03:00,48.9,46.1,29.88,South,180,5.8,-999.0,90,-99.99,,,0.04,Acu-Link.com,2013-02-08 19:03:00,
2013-02-08 11:18:00,46.0,40.8,29.87,South,180,8.3,-999.0,82,-99.99,,,0.04,Acu-Link.com,2013-02-08 19:18:00,
2013-02-08 11:33:00,47.3,41.4,29.86,SSW,202,5.3,-999.0,80,-99.99,,,0.04,Acu-Link.com,2013-02-08 19:33:00,
2013-02-08 11:49:00,50.0,42.0,29.85,SW,225,3.7,-999.0,74,-99.99,,,0.04,Acu-Link.com,2013-02-08 19:49:00,
2013-02-08 12:04:00,51.3,43.3,29.84,SW,225,3.7,-999.0,74,-99.99,,,0.04,Acu-Link.com,2013-02-08 20:04:00,
2013-02-08 12:19:00,48.7,40.8,29.84,SW,225,6.8,-999.0,74,-99.99,,,0.04,Acu-Link.com,2013-02-08 20:19:00,
2013-02-08 12:34:00,37.4,35.3,29.85,West,270,10.4,-999.0,92,-99.99,,,0.04,Acu-Link.com,2013-02-08 20:34:00,
2013-02-08 12:49:00,36.0,35.5,29.85,NW,315,8.3,-999.0,98,-99.99,,,0.08,Acu-Link.com,2013-02-08 20:49:00,
2013-02-08 13:04:00,35.1,34.6,29.85,NNW,337,7.3,-999.0,98,-99.99,,,0.10,Acu-Link.com,2013-02-08 21:04:00,
2013-02-08 13:20:00,38.1,37.6,29.84,SSW,202,2.7,-999.0,98,-99.99,,,0.18,Acu-Link.com,2013-02-08 21:20:00,
2013-02-08 13:35:00,47.5,46.4,29.84,South,180,3.7,-999.0,96,-99.99,,,0.19,Acu-Link.com,2013-02-08 21:35:00,
2013-02-08 13:50:00,39.7,39.2,29.84,South,180,6.8,-999.0,98,-99.99,,,0.20,Acu-Link.com,2013-02-08 21:50:00,
2013-02-08 14:05:00,38.7,38.2,29.82,SE,135,8.9,-999.0,98,-99.99,,,0.20,Acu-Link.com,2013-02-08 22:05:00,
2013-02-08 14:21:00,39.7,39.2,29.82,SSE,157,5.8,-999.0,98,-99.99,,,0.20,Acu-Link.com,2013-02-08 22:21:00,
2013-02-08 14:36:00,40.1,39.6,29.81,ESE,112,4.2,-999.0,98,-99.99,,,0.20,Acu-Link.com,2013-02-08 22:36:00,
2013-02-08 14:51:00,40.5,40.0,29.81,ESE,112,3.7,-999.0,98,-99.99,,,0.20,Acu-Link.com,2013-02-08 22:51:00,
2013-02-08 15:07:00,47.7,47.2,29.81,South,180,0.0,-999.0,98,-99.99,,,0.28,Acu-Link.com,2013-02-08 23:07:00,
2013-02-08 15:22:00,39.2,38.7,29.81,WSW,247,2.7,-999.0,98,-99.99,,,0.32,Acu-Link.com,2013-02-08 23:22:00,
2013-02-08 15:37:00,38.8,38.3,29.81,NNE,22,4.2,-999.0,98,-99.99,,,0.34,Acu-Link.com,2013-02-08 23:37:00,
2013-02-08 15:53:00,39.4,38.9,29.80,North,0,2.2,-999.0,98,-99.99,,,0.34,Acu-Link.com,2013-02-08 23:53:00,
2013-02-08 16:08:00,38.8,38.3,29.80,ESE,112,4.2,-999.0,98,-99.99,,,0.34,Acu-Link.com,2013-02-09 00:08:00,
2013-02-08 16:23:00,40.1,39.6,29.80,SSE,157,3.7,-999.0,98,-99.99,,,0.36,Acu-Link.com,2013-02-09 00:23:00,
2013-02-08 16:38:00,46.8,46.3,29.79,SSE,157,2.7,-999.0,98,-99.99,,,0.36,Acu-Link.com,2013-02-09 00:38:00,
2013-02-08 16:53:00,39.4,38.9,29.79,ESE,112,3.2,-999.0,98,-99.99,,,0.38,Acu-Link.com,2013-02-09 00:53:00,
2013-02-08 17:09:00,39.9,39.4,29.79,NE,45,3.7,-999.0,98,-99.99,,,0.38,Acu-Link.com,2013-02-09 01:09:00,
2013-02-08 17:24:00,40.1,39.6,29.79,ENE,67,3.2,-999.0,98,-99.99,,,0.38,Acu-Link.com,2013-02-09 01:24:00,
2013-02-08 17:39:00,38.8,38.3,29.79,ESE,112,4.2,-999.0,98,-99.99,,,0.38,Acu-Link.com,2013-02-09 01:39:00,
2013-02-08 18:10:00,38.5,38.0,29.79,SE,135,4.2,-999.0,98,-99.99,,,0.38,Acu-Link.com,2013-02-09 02:10:00,
2013-02-08 18:25:00,38.8,38.3,29.80,SSE,157,5.8,-999.0,98,-99.99,,,0.38,Acu-Link.com,2013-02-09 02:25:00,
2013-02-08 18:41:00,38.3,37.8,29.79,East,90,2.2,-999.0,98,-99.99,,,0.38,Acu-Link.com,2013-02-09 02:41:00,
2013-02-08 18:56:00,38.1,37.6,29.80,WSW,247,0.0,-999.0,98,-99.99,,,0.38,Acu-Link.com,2013-02-09 02:56:00,
2013-02-08 19:11:00,37.8,37.3,29.79,ESE,112,3.7,-999.0,98,-99.99,,,0.38,Acu-Link.com,2013-02-09 03:11:00,
2013-02-08 19:26:00,38.3,37.8,29.79,SSE,157,2.7,-999.0,98,-99.99,,,0.38,Acu-Link.com,2013-02-09 03:26:00,
2013-02-08 19:41:00,38.5,38.0,29.79,SE,135,3.2,-999.0,98,-99.99,,,0.38,Acu-Link.com,2013-02-09 03:41:00,
2013-02-08 19:57:00,37.9,37.4,29.79,ESE,112,2.7,-999.0,98,-99.99,,,0.38,Acu-Link.com,2013-02-09 03:57:00,
2013-02-08 20:12:00,39.6,39.1,29.79,SSW,202,1.7,-999.0,98,-99.99,,,0.38,Acu-Link.com,2013-02-09 04:12:00,
2013-02-08 20:27:00,39.0,38.5,29.80,SW,225,3.7,-999.0,98,-99.99,,,0.38,Acu-Link.com,2013-02-09 04:27:00,
2013-02-08 20:43:00,39.7,38.9,29.80,SSE,157,3.7,-999.0,97,-99.99,,,0.38,Acu-Link.com,2013-02-09 04:43:00,
2013-02-08 20:58:00,40.8,39.5,29.80,SSW,202,3.7,-999.0,95,-99.99,,,0.38,Acu-Link.com,2013-02-09 04:58:00,
2013-02-08 21:13:00,38.7,38.2,29.80,SSE,157,3.7,-999.0,98,-99.99,,,0.38,Acu-Link.com,2013-02-09 05:13:00,
2013-02-08 21:28:00,40.6,38.5,29.79,South,180,0.0,-999.0,92,-99.99,,,0.38,Acu-Link.com,2013-02-09 05:28:00,
2013-02-08 21:44:00,41.0,38.6,29.80,SSE,157,2.7,-999.0,91,-99.99,,,0.38,Acu-Link.com,2013-02-09 05:44:00,
2013-02-08 21:59:00,39.6,39.1,29.81,SSW,202,2.7,-999.0,98,-99.99,,,0.38,Acu-Link.com,2013-02-09 05:59:00,
2013-02-08 22:14:00,43.5,43.0,29.80,SW,225,0.0,-999.0,98,-99.99,,,0.38,Acu-Link.com,2013-02-09 06:14:00,
2013-02-08 22:29:00,40.1,39.6,29.80,SSW,202,2.7,-999.0,98,-99.99,,,0.38,Acu-Link.com,2013-02-09 06:29:00,
2013-02-08 22:45:00,40.3,39.5,29.80,SSW,202,2.2,-999.0,97,-99.99,,,0.38,Acu-Link.com,2013-02-09 06:45:00,
2013-02-08 23:00:00,38.8,38.3,29.80,SSE,157,3.7,-999.0,98,-99.99,,,0.38,Acu-Link.com,2013-02-09 07:00:00,
2013-02-08 23:15:00,41.0,40.5,29.81,SSE,157,0.0,-999.0,98,-99.99,,,0.38,Acu-Link.com,2013-02-09 07:15:00,
2013-02-08 23:31:00,40.6,40.1,29.81,West,270,0.0,-999.0,98,-99.99,,,0.38,Acu-Link.com,2013-02-09 07:31:00,
2013-02-08 23:46:00,42.3,41.8,29.82,SSE,157,1.7,-999.0,98,-99.99,,,0.38,Acu-Link.com,2013-02-09 07:46:00,